createdAt,value
2019-02-05T00:01:37.124Z,63.50
2019-02-05T00:04:07.201Z,63.50
2019-02-05T00:06:37.018Z,63.50
2019-02-05T00:09:09.954Z,63.30
2019-02-05T00:11:39.762Z,63.30
2019-02-05T00:14:09.528Z,63.30
2019-02-05T00:16:39.548Z,63.10
2019-02-05T00:19:09.417Z,63.20
2019-02-05T00:21:39.254Z,63.50
2019-02-05T00:24:09.068Z,63.50
2019-02-05T00:26:39.541Z,63.50
2019-02-05T00:29:09.287Z,63.50
2019-02-05T00:31:39.419Z,63.50
2019-02-05T00:34:09.317Z,63.70
2019-02-05T00:36:39.102Z,63.60
2019-02-05T00:39:09.930Z,63.50
2019-02-05T00:41:39.938Z,63.60
2019-02-05T00:44:09.794Z,63.70
2019-02-05T00:46:39.556Z,63.80
2019-02-05T00:49:09.351Z,63.80
2019-02-05T00:51:39.113Z,63.80
2019-02-05T00:54:08.966Z,63.80
2019-02-05T00:56:38.736Z,63.90
2019-02-05T00:59:08.856Z,63.80
2019-02-05T01:01:38.639Z,63.90
2019-02-05T01:04:08.478Z,63.70
2019-02-05T01:06:38.238Z,63.60
2019-02-05T01:09:09.255Z,63.50
2019-02-05T01:11:39.039Z,63.70
2019-02-05T01:14:08.870Z,63.60
2019-02-05T01:16:39.331Z,63.50
2019-02-05T01:19:09.146Z,63.60
2019-02-05T01:21:38.908Z,63.40
2019-02-05T01:24:08.724Z,63.30
2019-02-05T01:26:38.812Z,63.50
2019-02-05T01:29:08.617Z,63.70
2019-02-05T01:31:38.379Z,63.70
2019-02-05T01:34:08.214Z,63.60
2019-02-05T01:36:37.969Z,63.70
2019-02-05T01:39:08.304Z,63.90
2019-02-05T01:41:38.275Z,63.90
2019-02-05T01:44:08.097Z,63.90
2019-02-05T01:46:37.867Z,64.00
2019-02-05T01:49:07.679Z,63.80
2019-02-05T01:51:37.473Z,63.50
2019-02-05T01:54:07.292Z,63.60
2019-02-05T01:56:40.670Z,63.80
2019-02-05T01:59:08.726Z,63.80
2019-02-05T02:01:38.491Z,63.90
2019-02-05T02:04:08.291Z,64.00
2019-02-05T02:06:38.049Z,64.00
2019-02-05T02:09:08.281Z,64.00
2019-02-05T02:11:38.046Z,64.00
2019-02-05T02:14:07.895Z,64.00
2019-02-05T02:16:39.513Z,64.10
2019-02-05T02:19:09.301Z,64.00
2019-02-05T02:21:39.060Z,64.10
2019-02-05T02:24:09.069Z,64.20
2019-02-05T02:26:38.786Z,65.20
2019-02-05T02:29:08.604Z,64.30
2019-02-05T02:31:38.419Z,64.30
2019-02-05T02:34:08.241Z,64.40
2019-02-05T02:36:37.987Z,65.10
2019-02-05T02:39:08.362Z,64.30
2019-02-05T02:41:38.124Z,64.30
2019-02-05T02:44:07.940Z,64.40
2019-02-05T02:46:37.716Z,64.30
2019-02-05T02:49:07.527Z,64.20
2019-02-05T02:51:37.674Z,64.20
2019-02-05T02:54:07.505Z,64.00
2019-02-05T02:56:37.268Z,64.00
2019-02-05T02:59:07.067Z,64.20
2019-02-05T03:01:36.824Z,64.30
2019-02-05T03:04:06.638Z,64.40
2019-02-05T03:06:36.794Z,64.40
2019-02-05T03:09:10.457Z,64.40
2019-02-05T03:11:40.234Z,64.20
2019-02-05T03:14:10.072Z,64.20
2019-02-05T03:16:40.382Z,64.20
2019-02-05T03:19:10.259Z,64.30
2019-02-05T03:21:40.011Z,64.20
2019-02-05T03:24:09.926Z,64.20
2019-02-05T03:26:39.693Z,64.20
2019-02-05T03:29:09.501Z,64.30
2019-02-05T03:31:39.356Z,64.30
2019-02-05T03:34:09.201Z,64.40
2019-02-05T03:36:38.948Z,64.40
2019-02-05T03:39:09.294Z,64.40
2019-02-05T03:41:39.041Z,64.40
2019-02-05T03:44:08.880Z,64.50
2019-02-05T03:46:38.645Z,64.50
2019-02-05T03:49:08.455Z,64.40
2019-02-05T03:52:15.172Z,64.40
2019-02-05T03:55:01.235Z,64.30
2019-02-05T03:58:23.312Z,64.40
2019-02-05T04:01:09.158Z,64.40
2019-02-05T04:04:08.879Z,64.40
2019-02-05T04:07:09.141Z,64.50
2019-02-05T04:10:08.934Z,64.60
2019-02-05T04:13:02.916Z,64.70
2019-02-05T04:15:41.774Z,64.80
2019-02-05T04:18:49.118Z,64.80
2019-02-05T04:21:46.450Z,64.80
2019-02-05T04:24:49.255Z,64.80
2019-02-05T04:27:47.672Z,64.80
2019-02-05T04:30:42.519Z,64.80
2019-02-05T04:34:01.277Z,64.80
2019-02-05T04:37:07.247Z,64.80
2019-02-05T04:40:00.454Z,64.80
2019-02-05T04:43:13.475Z,64.80
2019-02-05T04:46:08.633Z,64.80
2019-02-05T04:49:23.135Z,64.90
2019-02-05T04:52:34.103Z,64.70
2019-02-05T04:55:34.939Z,64.70
2019-02-05T04:58:54.293Z,65.00
2019-02-05T05:02:11.025Z,65.10
2019-02-05T05:05:02.881Z,65.30
2019-02-05T05:08:22.108Z,65.10
2019-02-05T05:10:51.892Z,65.10
2019-02-05T05:13:21.720Z,64.90
2019-02-05T05:15:51.892Z,65.10
2019-02-05T05:18:21.725Z,65.20
2019-02-05T05:20:51.486Z,65.10
2019-02-05T05:23:21.307Z,65.20
2019-02-05T05:25:51.067Z,65.10
2019-02-05T05:28:20.906Z,65.30
2019-02-05T05:30:50.724Z,65.50
2019-02-05T05:33:20.557Z,65.40
2019-02-05T05:35:50.362Z,65.20
2019-02-05T05:38:20.180Z,65.10
2019-02-05T05:40:49.967Z,65.10
2019-02-05T05:43:19.785Z,65.00
2019-02-05T05:45:49.590Z,65.10
2019-02-05T05:48:19.354Z,65.10
2019-02-05T05:50:49.183Z,65.20
2019-02-05T05:53:18.947Z,65.10
2019-02-05T05:55:48.756Z,65.10
2019-02-05T05:58:22.623Z,65.10
2019-02-05T06:00:49.957Z,65.10
2019-02-05T06:03:19.743Z,65.10
2019-02-05T06:05:49.564Z,65.10
2019-02-05T06:08:19.302Z,65.10
2019-02-05T06:10:49.109Z,65.10
2019-02-05T06:13:18.875Z,65.10
2019-02-05T06:15:48.685Z,65.20
2019-02-05T06:18:18.911Z,65.20
2019-02-05T06:20:48.713Z,65.20
2019-02-05T06:23:18.472Z,65.90
2019-02-05T06:25:48.262Z,65.10
2019-02-05T06:28:18.069Z,64.80
2019-02-05T06:30:47.869Z,64.90
2019-02-05T06:33:17.907Z,65.00
2019-02-05T06:35:47.663Z,65.20
2019-02-05T06:38:17.464Z,65.30
2019-02-05T06:40:47.241Z,65.40
2019-02-05T06:43:17.565Z,65.40
2019-02-05T06:45:47.344Z,65.30
2019-02-05T06:48:17.590Z,65.30
2019-02-05T06:50:47.359Z,65.30
2019-02-05T06:53:17.168Z,65.40
2019-02-05T06:55:46.952Z,65.50
2019-02-05T06:58:16.773Z,65.40
2019-02-05T07:00:46.545Z,65.50
2019-02-05T07:03:16.801Z,65.30
2019-02-05T07:09:15.217Z,65.40
2019-02-05T07:11:44.972Z,65.20
2019-02-05T07:14:14.752Z,65.40
2019-02-05T07:16:44.503Z,65.50
2019-02-05T07:19:14.259Z,65.50
2019-02-05T07:21:44.593Z,65.60
2019-02-05T07:24:14.337Z,65.60
2019-02-05T07:26:44.157Z,65.70
2019-02-05T07:29:13.926Z,65.70
2019-02-05T07:31:43.803Z,65.60
2019-02-05T07:34:13.566Z,65.60
2019-02-05T07:36:43.336Z,65.70
2019-02-05T07:39:13.116Z,65.70
2019-02-05T07:41:43.014Z,65.70
2019-02-05T07:44:12.856Z,65.80
2019-02-05T07:46:42.633Z,65.70
2019-02-05T07:49:12.412Z,65.80
2019-02-05T07:51:42.225Z,65.70
2019-02-05T07:54:11.985Z,65.80
2019-02-05T07:56:41.819Z,65.90
2019-02-05T07:59:11.643Z,65.90
2019-02-05T08:01:41.406Z,65.90
2019-02-05T08:04:11.269Z,65.90
2019-02-05T08:06:41.034Z,65.90
2019-02-05T08:09:11.577Z,66.00
2019-02-05T08:11:41.713Z,65.90
2019-02-05T08:14:11.579Z,65.70
2019-02-05T08:16:41.353Z,65.70
2019-02-05T08:19:11.109Z,65.60
2019-02-05T08:21:40.855Z,65.80
2019-02-05T08:24:14.110Z,65.70
2019-02-05T08:26:44.191Z,65.60
2019-02-05T08:29:21.289Z,65.70
2019-02-05T08:31:46.452Z,65.70
2019-02-05T08:34:16.678Z,65.70
2019-02-05T08:36:47.103Z,65.70
2019-02-05T08:39:17.988Z,65.70
2019-02-05T08:41:48.243Z,65.50
2019-02-05T08:44:18.633Z,65.30
2019-02-05T08:46:48.864Z,65.10
2019-02-05T08:49:19.202Z,65.10
2019-02-05T08:51:49.460Z,65.20
2019-02-05T08:54:19.678Z,65.10
2019-02-05T08:56:50.027Z,65.30
2019-02-05T08:59:22.791Z,65.40
2019-02-05T09:01:53.115Z,65.50
2019-02-05T09:04:23.637Z,65.50
2019-02-05T09:06:54.011Z,65.40
2019-02-05T09:09:24.311Z,65.30
2019-02-05T09:11:54.180Z,65.30
2019-02-05T09:14:24.009Z,65.30
2019-02-05T09:16:58.688Z,65.40
2019-02-05T09:19:28.447Z,65.50
2019-02-05T09:21:58.253Z,65.50
2019-02-05T09:24:28.013Z,65.40
2019-02-05T09:26:57.751Z,65.20
2019-02-05T09:29:33.327Z,65.20
2019-02-05T09:32:02.126Z,65.20
2019-02-05T09:34:31.918Z,65.30
2019-02-05T09:37:01.657Z,65.30
2019-02-05T09:39:31.492Z,65.30
2019-02-05T09:42:01.327Z,65.00
2019-02-05T09:44:31.648Z,65.00
2019-02-05T09:47:01.553Z,65.00
2019-02-05T09:49:31.335Z,65.10
2019-02-05T09:52:01.081Z,65.20
2019-02-05T09:54:31.010Z,65.30
2019-02-05T09:57:00.763Z,65.20
2019-02-05T09:59:30.646Z,65.30
2019-02-05T10:02:00.409Z,65.30
2019-02-05T10:04:30.143Z,66.10
2019-02-05T10:06:59.944Z,65.70
2019-02-05T10:09:29.648Z,65.60
2019-02-05T10:11:59.439Z,65.60
2019-02-05T10:14:29.163Z,65.70
2019-02-05T10:16:59.616Z,65.50
2019-02-05T10:19:29.350Z,65.50
2019-02-05T10:21:59.190Z,65.60
2019-02-05T10:24:29.931Z,65.70
2019-02-05T10:26:59.822Z,65.60
2019-02-05T10:29:29.582Z,65.60
2019-02-05T10:31:59.646Z,65.70
2019-02-05T10:34:34.153Z,65.80
2019-02-05T10:37:00.855Z,66.60
2019-02-05T10:39:30.658Z,65.70
2019-02-05T10:42:00.427Z,65.70
2019-02-05T10:44:30.256Z,65.70
2019-02-05T10:47:00.151Z,65.70
2019-02-05T10:49:29.954Z,65.80
2019-02-05T10:51:59.812Z,65.90
2019-02-05T10:54:29.622Z,66.00
2019-02-05T10:56:59.339Z,65.80
2019-02-05T10:59:29.274Z,65.80
2019-02-05T11:01:59.338Z,65.90
2019-02-05T11:04:29.158Z,65.90
2019-02-05T11:06:58.839Z,65.90
2019-02-05T11:09:28.619Z,65.60
2019-02-05T11:11:58.368Z,65.60
2019-02-05T11:14:28.243Z,65.60
2019-02-05T11:16:59.047Z,65.70
2019-02-05T11:19:28.885Z,65.70
2019-02-05T11:21:58.695Z,65.80
2019-02-05T11:24:28.466Z,65.40
2019-02-05T11:26:58.281Z,65.40
2019-02-05T11:29:27.950Z,65.50
2019-02-05T11:31:57.799Z,65.20
2019-02-05T11:34:27.568Z,65.00
2019-02-05T11:36:58.271Z,65.20
2019-02-05T11:39:28.136Z,65.20
2019-02-05T11:41:57.895Z,65.10
2019-02-05T11:44:27.685Z,65.20
2019-02-05T11:46:57.491Z,65.10
2019-02-05T11:49:27.497Z,65.10
2019-02-05T11:51:57.293Z,65.10
2019-02-05T11:54:27.093Z,65.20
2019-02-05T11:56:57.037Z,65.40
2019-02-05T11:59:26.891Z,65.40
2019-02-05T12:01:56.647Z,65.40
2019-02-05T12:04:26.932Z,65.40
2019-02-05T12:06:56.704Z,65.20
2019-02-05T12:09:27.165Z,65.20
2019-02-05T12:11:56.913Z,65.00
2019-02-05T12:14:26.687Z,65.10
2019-02-05T12:16:57.144Z,65.00
2019-02-05T12:19:27.008Z,65.00
2019-02-05T12:21:57.145Z,64.80
2019-02-05T12:24:26.942Z,64.40
2019-02-05T12:26:56.842Z,64.70
2019-02-05T12:29:26.609Z,65.00
2019-02-05T12:31:56.386Z,65.00
2019-02-05T12:34:26.185Z,64.90
2019-02-05T12:36:56.393Z,64.80
2019-02-05T12:39:26.160Z,64.60
2019-02-05T12:41:55.962Z,64.60
2019-02-05T12:44:26.528Z,64.80
2019-02-05T12:46:56.500Z,65.10
2019-02-05T12:49:26.398Z,65.00
2019-02-05T12:51:56.550Z,65.70
2019-02-05T12:54:26.495Z,65.00
2019-02-05T12:56:56.326Z,64.70
2019-02-05T12:59:26.035Z,64.50
2019-02-05T13:01:55.944Z,64.50
2019-02-05T13:04:25.739Z,64.40
2019-02-05T13:06:55.892Z,64.50
2019-02-05T13:09:25.636Z,64.60
2019-02-05T13:11:55.402Z,64.30
2019-02-05T13:14:25.217Z,64.40
2019-02-05T13:16:55.010Z,64.30
2019-02-05T13:19:24.808Z,63.50
2019-02-05T13:21:54.550Z,63.30
2019-02-05T13:24:24.345Z,63.10
2019-02-05T13:26:54.101Z,62.00
2019-02-05T13:29:24.094Z,62.60
2019-02-05T13:31:53.869Z,62.00
2019-02-05T13:34:24.123Z,62.20
2019-02-05T13:36:54.069Z,62.70
2019-02-05T13:39:23.864Z,62.90
2019-02-05T13:41:53.604Z,62.30
2019-02-05T13:44:23.378Z,62.70
2019-02-05T13:46:53.179Z,61.50
2019-02-05T13:49:23.156Z,63.10
2019-02-05T13:51:52.943Z,61.50
2019-02-05T13:54:22.695Z,62.70
2019-02-05T13:56:52.508Z,61.90
2019-02-05T13:59:22.337Z,61.50
2019-02-05T14:01:52.063Z,61.30
2019-02-05T14:04:21.818Z,60.20
2019-02-05T14:06:51.774Z,59.90
2019-02-05T14:09:21.464Z,59.90
2019-02-05T14:11:51.299Z,60.90
2019-02-05T14:14:21.095Z,58.60
2019-02-05T14:16:50.915Z,59.10
2019-02-05T14:19:20.674Z,58.90
2019-02-05T14:21:50.476Z,59.20
2019-02-05T14:24:20.273Z,58.40
2019-02-05T14:26:50.079Z,58.20
2019-02-05T14:29:19.857Z,58.30
2019-02-05T14:31:49.660Z,58.40
2019-02-05T14:34:19.548Z,57.60
2019-02-05T14:36:49.331Z,57.20
2019-02-05T14:39:19.135Z,57.10
2019-02-05T14:41:48.882Z,55.90
2019-02-05T14:44:18.652Z,55.20
2019-02-05T14:46:48.481Z,56.10
2019-02-05T14:49:18.432Z,55.60
2019-02-05T14:51:48.198Z,55.80
2019-02-05T14:54:18.003Z,55.90
2019-02-05T14:56:47.866Z,55.80
2019-02-05T14:59:17.704Z,54.90
2019-02-05T15:01:47.870Z,54.80
2019-02-05T15:04:17.705Z,54.60
2019-02-05T15:06:47.531Z,54.80
2019-02-05T15:09:17.323Z,54.50
2019-02-05T15:11:47.128Z,54.30
2019-02-05T15:14:17.029Z,54.00
2019-02-05T15:16:46.846Z,54.20
2019-02-05T15:19:16.653Z,54.10
2019-02-05T15:21:46.468Z,54.40
2019-02-05T15:24:16.281Z,54.30
2019-02-05T15:26:46.089Z,54.40
2019-02-05T15:29:15.834Z,54.50
2019-02-05T15:31:54.149Z,54.30
2019-02-05T15:34:28.445Z,54.40
2019-02-05T15:36:58.278Z,54.60
2019-02-05T15:39:28.021Z,54.50
2019-02-05T15:41:58.159Z,54.80
2019-02-05T15:44:28.146Z,54.80
2019-02-05T15:46:57.914Z,55.00
2019-02-05T15:49:27.805Z,54.90
2019-02-05T15:51:57.762Z,55.00
2019-02-05T15:54:27.603Z,55.10
2019-02-05T15:56:57.411Z,55.20
2019-02-05T15:59:27.191Z,55.40
2019-02-05T16:02:05.868Z,55.40
2019-02-05T16:04:28.396Z,56.30
2019-02-05T16:06:59.301Z,55.80
2019-02-05T16:09:29.508Z,55.90
2019-02-05T16:11:59.247Z,56.10
2019-02-05T16:14:29.207Z,56.20
2019-02-05T16:16:58.955Z,56.20
2019-02-05T16:19:28.747Z,56.40
2019-02-05T16:21:58.552Z,56.60
2019-02-05T16:24:28.748Z,56.70
2019-02-05T16:26:58.503Z,56.70
2019-02-05T16:29:28.314Z,56.80
2019-02-05T16:31:58.073Z,57.10
2019-02-05T16:34:27.851Z,57.30
2019-02-05T16:36:58.616Z,57.40
2019-02-05T16:39:28.769Z,57.60
2019-02-05T16:41:58.609Z,57.70
2019-02-05T16:44:28.788Z,57.60
2019-02-05T16:46:58.611Z,57.70
2019-02-05T16:49:28.361Z,57.70
2019-02-05T16:51:58.704Z,57.50
2019-02-05T16:54:28.421Z,57.70
2019-02-05T16:56:58.185Z,57.80
2019-02-05T16:59:28.115Z,57.90
2019-02-05T17:02:00.887Z,58.00
2019-02-05T17:04:30.659Z,58.00
2019-02-05T17:07:00.986Z,58.10
2019-02-05T17:09:30.773Z,58.20
2019-02-05T17:12:01.214Z,58.10
2019-02-05T17:14:30.943Z,58.10
2019-02-05T17:17:00.794Z,57.50
2019-02-05T17:19:31.892Z,58.10
2019-02-05T17:22:02.050Z,58.20
2019-02-05T17:24:31.801Z,58.30
2019-02-05T17:27:01.631Z,58.30
2019-02-05T17:29:31.419Z,59.00
2019-02-05T17:32:01.232Z,58.40
2019-02-05T17:34:31.076Z,58.50
2019-02-05T17:37:01.024Z,58.40
2019-02-05T17:39:30.777Z,58.40
2019-02-05T17:42:00.583Z,58.40
2019-02-05T17:44:31.466Z,58.50
2019-02-05T17:47:01.447Z,58.60
2019-02-05T17:49:32.003Z,58.70
2019-02-05T17:52:02.717Z,58.80
2019-02-05T17:54:32.546Z,58.90
2019-02-05T17:57:02.415Z,58.80
2019-02-05T17:59:32.167Z,58.80
2019-02-05T18:02:01.966Z,58.80
2019-02-05T18:04:32.085Z,59.00
2019-02-05T18:07:01.931Z,59.00
2019-02-05T18:09:31.698Z,59.00
2019-02-05T18:12:01.564Z,59.00
2019-02-05T18:14:31.424Z,59.10
2019-02-05T18:17:01.386Z,59.10
2019-02-05T18:19:31.112Z,59.20
2019-02-05T18:22:00.942Z,59.20
2019-02-05T18:24:31.164Z,59.20
2019-02-05T18:27:01.053Z,59.30
2019-02-05T18:29:30.875Z,59.30
2019-02-05T18:32:00.762Z,59.40
2019-02-05T18:34:30.784Z,59.40
2019-02-05T18:37:00.630Z,59.40
2019-02-05T18:39:30.490Z,59.40
2019-02-05T18:42:00.381Z,59.40
2019-02-05T18:44:30.365Z,59.40
2019-02-05T18:47:00.455Z,59.50
2019-02-05T18:49:30.979Z,59.60
2019-02-05T18:52:01.390Z,60.20
2019-02-05T18:54:31.493Z,59.50
2019-02-05T18:57:02.410Z,59.60
2019-02-05T18:59:32.605Z,59.60
2019-02-05T19:02:02.573Z,59.50
2019-02-05T19:04:33.511Z,60.20
2019-02-05T19:07:03.981Z,59.50
2019-02-05T19:09:34.088Z,59.60
2019-02-05T19:12:05.177Z,59.50
2019-02-05T19:14:36.646Z,59.40
2019-02-05T19:17:07.238Z,59.50
2019-02-05T19:19:37.872Z,59.40
2019-02-05T19:22:08.075Z,59.50
2019-02-05T19:24:53.410Z,59.60
2019-02-05T19:27:24.809Z,59.70
2019-02-05T19:29:55.955Z,59.80
2019-02-05T19:32:29.244Z,59.80
2019-02-05T19:35:00.055Z,59.80
2019-02-05T19:37:31.169Z,59.70
2019-02-05T19:40:02.089Z,59.70
2019-02-05T19:42:34.268Z,59.80
2019-02-05T19:45:42.252Z,59.80
2019-02-05T19:48:19.348Z,59.90
2019-02-05T19:50:49.608Z,59.80
2019-02-05T19:53:20.469Z,59.90
2019-02-05T19:55:50.582Z,59.90
2019-02-05T19:58:20.987Z,60.10
2019-02-05T20:00:51.520Z,60.10
2019-02-05T20:03:21.687Z,60.20
2019-02-05T20:05:52.653Z,60.20
2019-02-05T20:08:22.967Z,60.20
2019-02-05T20:10:54.195Z,60.30
2019-02-05T20:13:25.206Z,60.20
2019-02-05T20:15:55.674Z,60.20
2019-02-05T20:18:25.786Z,60.40
2019-02-05T20:20:55.895Z,60.40
2019-02-05T20:23:26.025Z,60.50
2019-02-05T20:26:41.880Z,60.50
2019-02-05T20:29:13.018Z,60.50
2019-02-05T20:31:42.997Z,60.40
2019-02-05T20:34:12.926Z,60.50
2019-02-05T20:36:44.665Z,60.60
2019-02-05T20:39:19.093Z,60.60
2019-02-05T20:41:52.494Z,60.70
2019-02-05T20:44:22.265Z,60.70
2019-02-05T20:46:52.213Z,60.80
2019-02-05T20:49:23.177Z,61.00
2019-02-05T20:51:52.975Z,61.00
2019-02-05T20:54:23.351Z,61.10
2019-02-05T20:56:53.211Z,61.10
2019-02-05T20:59:23.090Z,61.30
2019-02-05T21:01:52.930Z,61.20
2019-02-05T21:04:23.578Z,61.10
2019-02-05T21:06:53.865Z,61.10
2019-02-05T21:09:23.746Z,61.20
2019-02-05T21:11:54.330Z,61.00
2019-02-05T21:14:24.240Z,61.00
2019-02-05T21:16:54.369Z,61.00
2019-02-05T21:19:24.273Z,61.00
2019-02-05T21:21:55.303Z,61.00
2019-02-05T21:24:25.106Z,61.00
2019-02-05T21:26:55.098Z,60.90
2019-02-05T21:29:25.961Z,60.80
2019-02-05T21:31:55.786Z,60.80
2019-02-05T21:34:25.920Z,61.00
2019-02-05T21:36:55.789Z,61.30
2019-02-05T21:39:26.036Z,61.20
2019-02-05T21:41:56.659Z,61.10
2019-02-05T21:44:26.738Z,60.80
2019-02-05T21:46:57.144Z,60.80
2019-02-05T21:49:27.958Z,60.90
2019-02-05T21:51:57.918Z,60.90
2019-02-05T21:54:27.858Z,60.90
2019-02-05T21:56:58.576Z,60.90
2019-02-05T21:59:28.727Z,60.90
2019-02-05T22:01:58.783Z,60.70
2019-02-05T22:04:29.635Z,60.80
2019-02-05T22:06:59.671Z,60.90
2019-02-05T22:09:29.531Z,60.90
2019-02-05T22:12:00.265Z,60.70
2019-02-05T22:14:30.388Z,60.90
2019-02-05T22:17:00.346Z,61.00
2019-02-05T22:19:31.017Z,61.00
2019-02-05T22:22:01.221Z,60.90
2019-02-05T22:24:31.411Z,60.90
2019-02-05T22:27:01.843Z,60.90
2019-02-05T22:29:32.718Z,60.90
2019-02-05T22:32:02.536Z,60.90
2019-02-05T22:34:39.460Z,60.90
2019-02-05T22:37:04.634Z,61.10
2019-02-05T22:39:34.946Z,61.00
2019-02-05T22:42:05.113Z,61.10
2019-02-05T22:44:35.611Z,61.20
2019-02-05T22:47:05.568Z,61.30
2019-02-05T22:49:36.065Z,61.40
2019-02-05T22:52:06.645Z,61.40
2019-02-05T22:54:36.492Z,61.40
2019-02-05T22:57:06.291Z,61.20
2019-02-05T22:59:37.178Z,61.40
2019-02-05T23:02:07.515Z,61.40
2019-02-05T23:05:13.740Z,61.20
2019-02-05T23:07:44.244Z,61.10
2019-02-05T23:10:46.619Z,61.10
2019-02-05T23:13:21.223Z,61.10
2019-02-05T23:15:52.297Z,60.90
2019-02-05T23:18:22.225Z,61.10
2019-02-05T23:20:53.914Z,61.10
2019-02-05T23:23:23.994Z,61.20
2019-02-05T23:25:53.792Z,61.10
2019-02-05T23:28:24.003Z,61.10
2019-02-05T23:30:55.028Z,61.30
2019-02-05T23:33:24.909Z,61.40
2019-02-05T23:35:54.759Z,61.30
2019-02-05T23:38:29.303Z,61.40
2019-02-05T23:40:56.896Z,61.30
2019-02-05T23:43:27.342Z,61.50
2019-02-05T23:46:01.261Z,61.50
2019-02-05T23:48:29.123Z,61.50
2019-02-05T23:50:58.996Z,61.40
2019-02-05T23:53:29.863Z,61.30
2019-02-05T23:55:59.737Z,61.10
2019-02-05T23:58:30.899Z,61.10
